Terminal Aerodrome Forecast
Issued by NWS Tuscon, AZ

Home | Current Version | Previous Version | Text Only | Print | Product List | Glossary On
Versions: 1 2 3 4 5 6 7 8 9 10 11 12 13 14 15 16 17 18 19 20
000
FTUS45 KTWC 231700
TAFDUG
TAF
KDUG 231738Z 2318/2418 10011KT P6SM SCT100
     FM232100 11011G20KT P6SM VCSH SCT070 BKN160
     FM240300 09008KT P6SM SCT100 BKN150=

USA.gov is the U.S. government's official web portal to all federal, state and local government web resources and services.